createdAt,value
2022-11-17T00:00:38.926Z,98513.09
2022-11-17T00:03:05.550Z,98505.47
2022-11-17T00:05:32.246Z,98503.75
2022-11-17T00:07:58.804Z,98508.31
2022-11-17T00:10:25.444Z,98512.13
2022-11-17T00:13:10.498Z,98505.34
2022-11-17T00:15:37.124Z,98503.81
2022-11-17T00:18:22.309Z,98502.78
2022-11-17T00:21:07.855Z,98508.13
2022-11-17T00:23:50.197Z,98495.13
2022-11-17T00:26:21.597Z,98499.69
2022-11-17T00:28:55.592Z,98497.31
2022-11-17T00:31:41.633Z,98493.94
2022-11-17T00:34:13.613Z,98489.38
2022-11-17T00:36:45.590Z,98494.50
2022-11-17T00:39:13.460Z,98493.53
2022-11-17T00:41:40.420Z,98490.16
2022-11-17T00:44:08.121Z,98498.59
2022-11-17T00:46:37.122Z,98492.59
2022-11-17T00:49:05.384Z,98498.72
2022-11-17T00:51:32.334Z,98485.56
2022-11-17T00:53:59.058Z,98493.09
2022-11-17T00:56:26.187Z,98503.88
2022-11-17T00:58:53.226Z,98499.56
2022-11-17T01:01:20.673Z,98498.88
2022-11-17T01:03:47.885Z,98504.91
2022-11-17T01:06:20.267Z,98501.44
2022-11-17T01:08:47.057Z,98501.72
2022-11-17T01:11:19.143Z,98499.38
2022-11-17T01:13:47.406Z,98500.97
2022-11-17T01:16:18.123Z,98507.81
2022-11-17T01:18:48.076Z,98509.81
2022-11-17T01:21:19.571Z,98509.94
2022-11-17T01:23:47.503Z,98508.44
2022-11-17T01:26:20.004Z,98502.81
2022-11-17T01:28:47.712Z,98499.97
2022-11-17T01:31:22.804Z,98503.56
2022-11-17T01:33:50.079Z,98499.44
2022-11-17T01:36:19.485Z,98496.88
2022-11-17T01:38:46.597Z,98495.81
2022-11-17T01:41:25.270Z,98490.84
2022-11-17T01:44:19.132Z,98489.63
2022-11-17T01:46:46.363Z,98502.63
2022-11-17T01:49:17.681Z,98489.78
2022-11-17T01:51:48.617Z,98488.25
2022-11-17T01:54:19.794Z,98490.78
2022-11-17T01:56:49.699Z,98486.66
2022-11-17T01:59:24.074Z,98493.66
2022-11-17T02:01:57.662Z,98490.56
2022-11-17T02:04:35.529Z,98485.81
2022-11-17T02:07:09.338Z,98497.72
2022-11-17T02:09:39.112Z,98491.72
2022-11-17T02:12:09.085Z,98496.97
2022-11-17T02:14:36.099Z,98494.34
2022-11-17T02:17:10.292Z,98495.69
2022-11-17T02:19:42.533Z,98499.38
2022-11-17T02:22:27.488Z,98496.94
2022-11-17T02:25:21.742Z,98494.47
2022-11-17T02:28:10.432Z,98486.84
2022-11-17T02:31:02.635Z,98491.78
2022-11-17T02:33:41.059Z,98488.13
2022-11-17T02:36:19.260Z,98492.31
2022-11-17T02:39:06.985Z,98494.03
2022-11-17T02:41:50.211Z,98496.63
2022-11-17T02:44:42.720Z,98498.44
2022-11-17T02:47:17.695Z,98503.69
2022-11-17T02:49:53.581Z,98503.88
2022-11-17T02:52:20.337Z,98504.31
2022-11-17T02:54:46.904Z,98502.88
2022-11-17T02:57:34.779Z,98504.19
2022-11-17T03:00:13.440Z,98506.69
2022-11-17T03:03:15.104Z,98502.72
2022-11-17T03:06:10.429Z,98510.72
2022-11-17T03:09:09.937Z,98510.47
2022-11-17T03:12:09.480Z,98510.94
2022-11-17T03:14:57.492Z,98501.53
2022-11-17T03:17:31.527Z,98499.00
2022-11-17T03:20:04.558Z,98502.72
2022-11-17T03:22:41.686Z,98500.16
2022-11-17T03:25:14.093Z,98499.28
2022-11-17T03:27:47.233Z,98500.19
2022-11-17T03:30:15.473Z,98490.34
2022-11-17T03:32:49.229Z,98498.19
2022-11-17T03:35:20.901Z,98485.50
2022-11-17T03:38:01.442Z,98487.34
2022-11-17T03:40:31.092Z,98489.69
2022-11-17T03:43:02.230Z,98489.94
2022-11-17T03:45:32.404Z,98478.50
2022-11-17T03:48:14.583Z,98489.19
2022-11-17T03:50:49.386Z,98483.72
2022-11-17T03:53:16.350Z,98487.22
2022-11-17T03:56:10.872Z,98477.44
2022-11-17T03:58:47.697Z,98478.38
2022-11-17T04:01:14.866Z,98477.25
2022-11-17T04:03:41.481Z,98477.66
2022-11-17T04:06:08.166Z,98476.72
2022-11-17T04:08:34.750Z,98472.03
2022-11-17T04:11:20.075Z,98478.06
2022-11-17T04:14:05.522Z,98470.81
2022-11-17T04:16:32.102Z,98473.59
2022-11-17T04:18:59.186Z,98467.31
2022-11-17T04:21:26.303Z,98467.66
2022-11-17T04:23:52.905Z,98466.94
2022-11-17T04:26:42.891Z,98481.31
2022-11-17T04:29:09.455Z,98470.50
2022-11-17T04:31:36.050Z,98468.13
2022-11-17T04:34:04.791Z,98456.97
2022-11-17T04:36:35.581Z,98462.59
2022-11-17T04:39:03.245Z,98466.13
2022-11-17T04:41:49.237Z,98471.59
2022-11-17T04:44:17.600Z,98481.81
2022-11-17T04:46:45.928Z,98491.31
2022-11-17T04:49:14.526Z,98491.34
2022-11-17T04:51:41.651Z,98498.28
2022-11-17T04:54:09.684Z,98495.09
2022-11-17T04:56:36.900Z,98486.84
2022-11-17T04:59:03.846Z,98487.72
2022-11-17T05:01:31.070Z,98489.38
2022-11-17T05:04:03.352Z,98497.44
2022-11-17T05:06:53.017Z,98498.66
2022-11-17T05:09:19.631Z,98503.59
2022-11-17T05:12:04.713Z,98513.25
2022-11-17T05:14:31.400Z,98514.63
2022-11-17T05:17:09.933Z,98515.13
2022-11-17T05:19:42.371Z,98515.00
2022-11-17T05:22:28.804Z,98524.13
2022-11-17T05:24:55.953Z,98534.56
2022-11-17T05:27:23.752Z,98538.13
2022-11-17T05:29:50.615Z,98550.41
2022-11-17T05:32:17.784Z,98555.88
2022-11-17T05:34:44.454Z,98553.06
2022-11-17T05:37:11.225Z,98559.44
2022-11-17T05:39:37.900Z,98559.16
2022-11-17T05:42:04.661Z,98546.88
2022-11-17T05:44:31.221Z,98535.06
2022-11-17T05:46:57.916Z,98533.41
2022-11-17T05:49:24.480Z,98520.66
2022-11-17T05:51:52.888Z,98516.88
2022-11-17T05:54:20.160Z,98515.13
2022-11-17T05:56:49.271Z,98508.88
2022-11-17T05:59:28.033Z,98506.66
2022-11-17T06:02:01.106Z,98502.47
2022-11-17T06:04:28.786Z,98499.78
2022-11-17T06:06:59.444Z,98499.78
2022-11-17T06:09:28.858Z,98517.81
2022-11-17T06:11:56.189Z,98518.09
2022-11-17T06:14:25.128Z,98526.19
2022-11-17T06:16:56.822Z,98526.84
2022-11-17T06:19:28.966Z,98526.31
2022-11-17T06:22:11.812Z,98519.94
2022-11-17T06:24:40.614Z,98515.00
2022-11-17T06:27:07.533Z,98508.31
2022-11-17T06:29:36.168Z,98510.56
2022-11-17T06:32:06.153Z,98493.13
2022-11-17T06:34:34.245Z,98501.75
2022-11-17T06:37:00.822Z,98500.78
2022-11-17T06:39:27.417Z,98498.28
2022-11-17T14:32:11.786Z,98354.28
2022-11-17T14:34:39.194Z,98352.94
2022-11-17T14:37:08.849Z,98343.25
2022-11-17T14:39:38.732Z,98346.94
2022-11-17T14:42:06.163Z,98345.53
2022-11-17T14:44:33.991Z,98345.22
2022-11-17T14:47:01.619Z,98340.72
2022-11-17T14:49:29.922Z,98338.69
2022-11-17T14:51:59.731Z,98336.53
2022-11-17T14:54:27.812Z,98342.69
2022-11-17T14:56:55.808Z,98343.72
2022-11-17T14:59:26.989Z,98354.94
2022-11-17T15:01:55.002Z,98349.63
2022-11-17T15:07:19.264Z,98354.31
2022-11-17T15:09:46.646Z,98360.56
2022-11-17T15:12:14.628Z,98360.09
2022-11-17T15:14:42.581Z,98361.09
2022-11-17T15:17:14.731Z,98349.22
2022-11-17T15:19:43.492Z,98361.41
2022-11-17T15:22:14.276Z,98358.63
2022-11-17T15:24:44.014Z,98356.28
2022-11-17T15:27:13.046Z,98353.22
2022-11-17T15:29:41.067Z,98347.25
2022-11-17T15:32:12.767Z,98341.34
2022-11-17T15:34:41.768Z,98345.72
2022-11-17T15:37:13.267Z,98337.72
2022-11-17T15:39:41.591Z,98347.09
2022-11-17T15:42:11.196Z,98345.69
2022-11-17T15:44:39.433Z,98340.84
2022-11-17T15:47:07.515Z,98349.25
2022-11-17T15:49:36.533Z,98344.75
2022-11-17T15:52:05.697Z,98340.91
2022-11-17T15:54:34.744Z,98347.78
2022-11-17T15:57:03.783Z,98349.22
2022-11-17T15:59:31.636Z,98351.09
2022-11-17T16:02:00.637Z,98345.88
2022-11-17T16:04:29.202Z,98346.03
2022-11-17T16:06:57.416Z,98347.53
2022-11-17T16:09:25.222Z,98346.78
2022-11-17T16:11:53.210Z,98354.28
2022-11-17T16:14:22.493Z,98351.28
2022-11-17T16:16:52.621Z,98342.38
2022-11-17T16:19:22.477Z,98339.06
2022-11-17T16:21:52.241Z,98339.72
2022-11-17T16:24:22.098Z,98341.44
2022-11-17T16:26:52.673Z,98344.16
2022-11-17T16:29:23.333Z,98342.97
2022-11-17T16:31:59.523Z,98337.34
2022-11-17T16:34:28.819Z,98330.81
2022-11-17T16:36:56.838Z,98336.13
2022-11-17T16:39:28.302Z,98337.47
2022-11-17T16:41:57.385Z,98343.69
2022-11-17T16:44:25.539Z,98340.50
2022-11-17T16:46:53.672Z,98331.31
2022-11-17T16:49:24.552Z,98332.19
2022-11-17T16:51:55.748Z,98327.50
2022-11-17T16:54:23.964Z,98328.44
2022-11-17T16:56:51.975Z,98337.13
2022-11-17T16:59:25.680Z,98345.66
2022-11-17T17:01:57.614Z,98335.88
2022-11-17T17:04:24.461Z,98334.28
2022-11-17T17:06:51.105Z,98335.88
2022-11-17T17:09:21.775Z,98327.41
2022-11-17T17:11:51.372Z,98332.53
2022-11-17T17:14:17.935Z,98325.78
2022-11-17T17:16:44.496Z,98323.41
2022-11-17T17:19:12.835Z,98326.19
2022-11-17T17:21:40.764Z,98328.03
2022-11-17T17:24:08.236Z,98330.97
2022-11-17T17:26:36.218Z,98330.16
2022-11-17T17:29:04.529Z,98327.78
2022-11-17T17:31:33.838Z,98335.13
2022-11-17T17:34:00.740Z,98331.91
2022-11-17T17:36:28.079Z,98331.94
2022-11-17T17:38:56.494Z,98335.06
2022-11-17T17:41:27.989Z,98341.88
2022-11-17T17:43:58.436Z,98320.72
2022-11-17T17:46:26.216Z,98323.44
2022-11-17T17:48:52.936Z,98320.88
2022-11-17T17:51:21.227Z,98321.75
2022-11-17T17:53:50.149Z,98318.38
2022-11-17T17:56:19.222Z,98318.88
2022-11-17T17:58:48.642Z,98313.63
2022-11-17T18:01:19.096Z,98321.38
2022-11-17T18:03:48.117Z,98316.88
2022-11-17T18:06:16.599Z,98320.78
2022-11-17T18:08:43.497Z,98327.63
2022-11-17T18:11:23.583Z,98325.50
2022-11-17T18:13:52.015Z,98319.63
2022-11-17T18:16:24.669Z,98313.91
2022-11-17T22:56:20.343Z,98297.66
2022-11-17T22:58:50.067Z,98286.94
2022-11-17T23:01:16.678Z,98294.47
2022-11-17T23:03:43.386Z,98294.56
2022-11-17T23:06:09.950Z,98307.84
2022-11-17T23:08:36.481Z,98306.25
2022-11-17T23:11:34.784Z,98303.09
2022-11-17T23:13:51.522Z,98298.06
2022-11-17T23:16:18.231Z,98303.09
2022-11-17T23:18:44.799Z,98304.06
2022-11-17T23:21:11.604Z,98307.06
2022-11-17T23:23:40.312Z,98309.03
2022-11-17T23:26:10.370Z,98305.88
2022-11-17T23:28:38.840Z,98312.75
2022-11-17T23:31:16.106Z,98318.63
2022-11-17T23:33:44.749Z,98319.25
2022-11-17T23:36:20.271Z,98326.13
2022-11-17T23:38:47.899Z,98325.78
2022-11-17T23:41:16.252Z,98329.53
2022-11-17T23:43:43.385Z,98331.09
2022-11-17T23:46:15.626Z,98330.94
2022-11-17T23:48:43.280Z,98344.53
2022-11-17T23:51:12.735Z,98338.84
2022-11-17T23:53:39.684Z,98340.34
2022-11-17T23:56:06.830Z,98331.97
2022-11-17T23:58:33.789Z,98333.41
